Time;durP1;ratioP1;P1;durP2;ratioP2;P2;SDS_P1;SDS_P2;PMS_P1;PMS_P2;Temp;Humidity;BMP_temperature;BMP_pressure;BME280_temperature;BME280_humidity;BME280_pressure;Samples;Min_cycle;Max_cycle;Signal;HPM_P1;HPM_P2
2021/07/21 00:00:25;;;;;;;13.27;9.03;;;15.90;72.90;;;;;;5106885;28;21068;-81
2021/07/21 00:02:52;;;;;;;12.17;8.90;;;15.80;72.90;;;;;;5107551;28;20454;-82
2021/07/21 00:05:20;;;;;;;11.47;9.87;;;15.80;72.90;;;;;;5107123;28;20437;-83
2021/07/21 00:07:47;;;;;;;11.88;9.30;;;15.80;72.90;;;;;;5108604;28;20443;-81
2021/07/21 00:10:16;;;;;;;14.70;9.53;;;15.80;72.90;;;;;;5109117;28;20229;-82
2021/07/21 00:15:31;;;;;;;11.70;8.67;;;15.80;72.90;;;;;;5119351;27;20442;-83
2021/07/21 00:18:03;;;;;;;13.80;10.03;;;15.80;73.20;;;;;;5118446;28;20422;-81
2021/07/21 00:20:31;;;;;;;11.87;9.00;;;15.70;73.80;;;;;;5119320;27;20470;-82
2021/07/21 00:22:59;;;;;;;12.75;9.45;;;15.70;75.00;;;;;;5114631;28;20455;-81
2021/07/21 00:25:26;;;;;;;13.90;9.63;;;15.70;75.70;;;;;;5113589;28;20243;-83
2021/07/21 00:27:54;;;;;;;10.10;8.27;;;15.60;76.40;;;;;;5119644;27;20410;-83
2021/07/21 00:30:21;;;;;;;17.20;9.07;;;15.60;77.00;;;;;;5119749;27;20456;-82
2021/07/21 00:32:49;;;;;;;14.43;8.93;;;15.60;78.10;;;;;;5119340;27;20455;-83
2021/07/21 00:35:18;;;;;;;13.20;9.45;;;15.50;77.70;;;;;;5120095;27;20431;-82
2021/07/21 00:37:45;;;;;;;11.60;9.20;;;15.50;78.20;;;;;;5119991;27;20185;-82
2021/07/21 00:40:15;;;;;;;12.43;9.43;;;15.40;78.30;;;;;;5119450;27;20502;-80
2021/07/21 00:42:42;;;;;;;15.45;9.90;;;15.40;78.00;;;;;;5119344;27;20439;-83
2021/07/21 00:45:11;;;;;;;11.50;8.93;;;15.50;77.00;;;;;;5119177;27;20199;-83
2021/07/21 00:47:38;;;;;;;11.70;8.97;;;15.50;76.10;;;;;;5110291;28;20455;-82
2021/07/21 00:50:07;;;;;;;13.40;8.10;;;15.40;75.00;;;;;;5100913;28;20433;-82
2021/07/21 00:52:36;;;;;;;10.77;8.52;;;15.50;73.80;;;;;;5100969;28;20502;-83
2021/07/21 00:55:03;;;;;;;17.00;9.20;;;15.50;73.30;;;;;;5099983;28;20350;-83
2021/07/21 00:57:31;;;;;;;10.80;8.70;;;15.60;71.80;;;;;;5103666;28;20435;-83
2021/07/21 00:59:58;;;;;;;11.23;8.30;;;15.70;70.80;;;;;;5106637;28;20456;-81
2021/07/21 01:02:27;;;;;;;13.27;8.27;;;15.70;69.40;;;;;;5106669;28;20493;-81
2021/07/21 01:04:54;;;;;;;9.98;8.25;;;15.80;67.60;;;;;;5100674;28;20538;-84
2021/07/21 01:07:22;;;;;;;9.83;7.70;;;15.90;66.20;;;;;;5101051;28;20287;-82
2021/07/21 01:09:49;;;;;;;12.80;9.00;;;15.90;65.60;;;;;;5102588;28;20436;-83
2021/07/21 01:12:27;;;;;;;9.47;7.33;;;15.90;65.40;;;;;;5109458;28;20510;-82
2021/07/21 01:15:05;;;;;;;9.10;7.90;;;15.90;64.50;;;;;;5115546;28;20462;-82
2021/07/21 01:17:38;;;;;;;10.83;7.70;;;15.90;64.00;;;;;;5118247;27;20461;-78
2021/07/21 01:20:41;;;;;;;10.90;8.90;;;15.90;64.90;;;;;;5117988;27;20492;-82
2021/07/21 01:23:17;;;;;;;8.40;7.07;;;15.80;65.40;;;;;;5112885;28;20427;-80
2021/07/21 01:25:56;;;;;;;12.30;8.17;;;15.70;66.50;;;;;;5115369;28;20442;-82
2021/07/21 01:28:28;;;;;;;11.32;7.72;;;15.70;67.50;;;;;;5117479;27;20432;-80
2021/07/21 01:30:57;;;;;;;10.43;8.18;;;15.60;67.20;;;;;;5114924;28;20251;-80
2021/07/21 01:33:25;;;;;;;9.88;7.55;;;15.70;66.60;;;;;;5105502;28;20284;-84
2021/07/21 01:35:56;;;;;;;11.85;8.68;;;15.70;66.00;;;;;;5098575;28;20692;-79
2021/07/21 01:38:29;;;;;;;11.45;7.80;;;15.70;65.90;;;;;;5101357;28;20259;-80
2021/07/21 01:40:59;;;;;;;10.13;7.05;;;15.70;65.00;;;;;;5102609;28;20711;-79
2021/07/21 01:43:31;;;;;;;9.75;8.10;;;15.70;63.90;;;;;;5100289;28;20302;-81
2021/07/21 01:46:00;;;;;;;11.50;7.78;;;15.80;64.00;;;;;;5097765;28;20703;-81
2021/07/21 01:48:31;;;;;;;10.73;8.23;;;15.70;65.60;;;;;;5103224;28;20698;-78
2021/07/21 01:51:00;;;;;;;10.70;8.27;;;15.60;66.60;;;;;;5099356;28;20510;-81
2021/07/21 01:53:30;;;;;;;10.88;8.38;;;15.50;68.10;;;;;;5101301;28;20450;-80
2021/07/21 01:55:57;;;;;;;10.93;8.60;;;15.40;68.10;;;;;;5100496;28;20262;-79
2021/07/21 01:58:28;;;;;;;9.80;7.97;;;15.30;69.20;;;;;;5101535;28;20459;-81
2021/07/21 02:00:57;;;;;;;11.90;9.20;;;15.20;70.00;;;;;;5104681;28;20225;-80
2021/07/21 02:03:25;;;;;;;11.80;7.75;;;15.00;72.30;;;;;;5106295;28;20228;-81
2021/07/21 02:05:58;;;;;;;10.68;8.10;;;14.90;72.00;;;;;;5106541;28;20228;-81
2021/07/21 02:08:25;;;;;;;14.85;9.48;;;14.70;73.90;;;;;;5107542;28;20219;-81
2021/07/21 02:10:53;;;;;;;10.35;7.82;;;14.70;75.50;;;;;;5106723;28;20601;-80
2021/07/21 02:13:20;;;;;;;11.98;8.65;;;14.60;76.10;;;;;;5107718;28;20222;-81
2021/07/21 02:15:50;;;;;;;15.07;8.65;;;14.50;77.00;;;;;;5106062;28;20218;-80
2021/07/21 02:18:18;;;;;;;11.18;8.55;;;14.40;78.30;;;;;;5105881;28;20210;-82
2021/07/21 02:20:46;;;;;;;13.38;8.90;;;14.40;79.60;;;;;;5104472;28;20232;-80
2021/07/21 02:23:14;;;;;;;12.20;8.93;;;14.30;80.20;;;;;;5109987;28;20265;-81
2021/07/21 02:25:42;;;;;;;15.07;9.25;;;14.20;81.30;;;;;;5109374;28;20212;-80
2021/07/21 02:28:09;;;;;;;10.20;8.57;;;14.10;82.50;;;;;;5112599;28;20204;-81
2021/07/21 02:30:37;;;;;;;14.05;9.10;;;14.10;83.20;;;;;;5114875;27;20246;-84
2021/07/21 02:33:12;;;;;;;12.90;9.00;;;14.10;83.40;;;;;;5116200;28;20196;-84
2021/07/21 02:35:39;;;;;;;13.82;8.98;;;14.10;84.60;;;;;;5116683;28;20215;-85
2021/07/21 02:38:06;;;;;;;12.40;9.38;;;14.00;84.80;;;;;;5117690;27;20187;-83
2021/07/21 02:40:34;;;;;;;12.55;8.35;;;14.00;85.60;;;;;;5117989;27;20236;-86
2021/07/21 02:43:01;;;;;;;14.18;8.75;;;14.00;86.30;;;;;;5117758;27;20203;-84
2021/07/21 02:45:28;;;;;;;17.15;10.65;;;14.00;87.10;;;;;;5117535;28;20208;-82
2021/07/21 02:47:55;;;;;;;12.43;8.52;;;13.90;88.20;;;;;;5109557;28;20238;-82
2021/07/21 02:50:24;;;;;;;11.98;9.68;;;13.90;88.30;;;;;;5104356;28;20245;-81
2021/07/21 02:52:58;;;;;;;12.40;9.02;;;13.90;88.20;;;;;;5105839;28;20208;-81
2021/07/21 02:55:28;;;;;;;15.55;9.88;;;13.90;88.80;;;;;;5112356;28;20187;-79
2021/07/21 02:57:59;;;;;;;15.50;10.38;;;13.80;89.00;;;;;;5110279;28;20233;-80
2021/07/21 03:00:29;;;;;;;11.73;8.63;;;13.80;90.00;;;;;;5102422;28;20220;-81
2021/07/21 03:02:57;;;;;;;12.60;9.05;;;13.90;90.00;;;;;;5102607;28;20227;-81
2021/07/21 03:05:28;;;;;;;17.98;9.95;;;13.80;90.30;;;;;;5103962;28;20271;-80
2021/07/21 03:07:58;;;;;;;13.52;10.20;;;13.90;90.00;;;;;;5107082;28;20228;-80
2021/07/21 03:10:25;;;;;;;11.50;9.57;;;13.80;90.00;;;;;;5105790;28;20253;-83
2021/07/21 03:12:58;;;;;;;11.27;8.95;;;13.80;90.20;;;;;;5105190;28;20219;-80
2021/07/21 03:15:29;;;;;;;10.55;8.70;;;13.80;90.50;;;;;;5103982;28;20238;-81
2021/07/21 03:17:57;;;;;;;12.85;8.38;;;13.70;90.60;;;;;;5105537;28;20208;-80
2021/07/21 03:20:26;;;;;;;13.40;9.65;;;13.70;90.80;;;;;;5109780;28;20215;-81
2021/07/21 03:22:56;;;;;;;12.35;9.52;;;13.60;91.00;;;;;;5108797;28;20258;-81
2021/07/21 03:25:25;;;;;;;12.85;9.65;;;13.60;91.70;;;;;;5117190;28;20206;-81
2021/07/21 03:27:53;;;;;;;12.50;9.73;;;13.50;92.20;;;;;;5116748;28;20682;-80
2021/07/21 03:30:22;;;;;;;12.70;9.20;;;13.40;92.70;;;;;;5108780;28;20229;-80
2021/07/21 03:32:49;;;;;;;12.77;9.52;;;13.40;93.10;;;;;;5107358;28;20253;-79
2021/07/21 03:35:18;;;;;;;14.25;10.52;;;13.40;93.50;;;;;;5107495;28;20210;-79
2021/07/21 03:37:48;;;;;;;13.38;9.93;;;13.40;93.60;;;;;;5108727;28;20223;-79
2021/07/21 03:40:16;;;;;;;16.13;8.90;;;13.40;93.90;;;;;;5111383;28;20220;-81
2021/07/21 03:42:44;;;;;;;13.13;10.48;;;13.40;94.10;;;;;;5110666;28;20223;-79
2021/07/21 03:45:15;;;;;;;14.20;9.57;;;13.30;94.20;;;;;;5107432;28;20207;-79
2021/07/21 03:47:43;;;;;;;12.85;9.80;;;13.30;94.70;;;;;;5111973;28;20204;-79
2021/07/21 03:50:11;;;;;;;13.70;9.82;;;13.30;95.00;;;;;;5114057;28;20214;-79
2021/07/21 03:52:41;;;;;;;14.77;10.63;;;13.20;95.20;;;;;;5110777;28;20213;-79
2021/07/21 03:55:12;;;;;;;15.15;9.95;;;13.20;95.20;;;;;;5109169;28;20207;-79
2021/07/21 03:57:39;;;;;;;14.10;9.52;;;13.20;95.00;;;;;;5110277;28;20217;-79
2021/07/21 04:00:10;;;;;;;13.10;10.23;;;13.20;95.10;;;;;;5105979;28;20244;-78
2021/07/21 04:02:37;;;;;;;16.08;9.50;;;13.20;95.00;;;;;;5102782;28;20233;-78
2021/07/21 04:05:05;;;;;;;13.60;9.55;;;13.20;95.10;;;;;;5101948;28;20297;-78
2021/07/21 04:07:37;;;;;;;16.48;9.73;;;13.30;95.00;;;;;;5100968;28;20210;-79
2021/07/21 04:10:07;;;;;;;12.32;9.00;;;13.30;94.90;;;;;;5099012;28;20260;-79
2021/07/21 04:12:36;;;;;;;12.73;9.43;;;13.30;94.70;;;;;;5098140;28;20234;-79
2021/07/21 04:15:04;;;;;;;12.48;8.85;;;13.30;94.60;;;;;;5098230;28;20227;-79
2021/07/21 04:17:32;;;;;;;12.15;9.63;;;13.40;94.50;;;;;;5097830;28;20242;-80
2021/07/21 04:20:02;;;;;;;13.20;9.73;;;13.40;94.30;;;;;;5098450;28;20682;-79
2021/07/21 04:22:30;;;;;;;13.30;9.18;;;13.50;93.90;;;;;;5098859;28;20231;-78
2021/07/21 04:24:58;;;;;;;11.38;9.00;;;13.50;93.70;;;;;;5101975;28;20212;-79
2021/07/21 04:27:25;;;;;;;16.30;9.60;;;13.60;93.30;;;;;;5105997;28;20256;-79
2021/07/21 04:29:54;;;;;;;14.88;9.25;;;13.60;92.80;;;;;;5101725;28;20238;-79
2021/07/21 04:32:22;;;;;;;12.88;9.27;;;13.70;92.80;;;;;;5101320;28;20226;-78
2021/07/21 04:34:51;;;;;;;11.23;9.02;;;13.80;92.20;;;;;;5104548;28;20291;-81
2021/07/21 04:37:19;;;;;;;13.13;8.90;;;13.80;91.60;;;;;;5108919;28;20237;-81
2021/07/21 04:39:46;;;;;;;14.07;8.88;;;13.90;91.10;;;;;;5113880;28;20209;-79
2021/07/21 04:42:14;;;;;;;11.75;8.30;;;13.90;90.40;;;;;;5113764;28;20254;-80
2021/07/21 04:44:41;;;;;;;12.15;8.85;;;14.00;90.00;;;;;;5119094;27;20221;-82
2021/07/21 04:47:11;;;;;;;12.82;8.75;;;14.10;88.80;;;;;;5119083;27;20220;-81
2021/07/21 04:49:39;;;;;;;10.38;8.55;;;14.20;88.50;;;;;;5114193;28;20286;-82
2021/07/21 04:52:08;;;;;;;11.82;8.27;;;14.30;88.10;;;;;;5111799;28;20277;-81
2021/07/21 04:54:35;;;;;;;17.63;8.20;;;14.40;86.00;;;;;;5110782;28;20219;-80
2021/07/21 04:57:02;;;;;;;10.70;8.20;;;14.50;83.90;;;;;;5103747;28;20239;-79
2021/07/21 04:59:29;;;;;;;12.02;8.57;;;14.60;83.20;;;;;;5099899;28;20254;-81
2021/07/21 05:01:56;;;;;;;11.68;7.47;;;14.70;81.30;;;;;;5105095;28;20243;-81
2021/07/21 05:04:24;;;;;;;8.93;7.07;;;15.00;79.80;;;;;;5109536;28;20243;-81
2021/07/21 05:06:51;;;;;;;12.73;8.10;;;15.60;74.20;;;;;;5113544;28;20415;-83
2021/07/21 05:09:18;;;;;;;11.10;6.87;;;16.20;69.80;;;;;;5110369;28;20398;-81
2021/07/21 05:11:45;;;;;;;9.40;7.50;;;16.90;65.00;;;;;;5107193;28;20507;-79
2021/07/21 05:14:12;;;;;;;9.33;7.50;;;17.50;62.40;;;;;;5112975;27;20472;-80
2021/07/21 05:16:39;;;;;;;9.47;6.83;;;17.90;56.60;;;;;;5117981;27;20441;-84
2021/07/21 05:19:06;;;;;;;10.10;6.57;;;17.90;56.60;;;;;;5119341;27;20419;-87
2021/07/21 05:21:34;;;;;;;8.50;6.07;;;17.50;58.60;;;;;;5119019;27;20547;-83
2021/07/21 05:24:01;;;;;;;11.33;6.50;;;17.60;58.40;;;;;;5116367;28;20422;-81
2021/07/21 05:26:28;;;;;;;9.43;7.13;;;18.40;55.20;;;;;;5111508;28;20468;-79
2021/07/21 05:28:55;;;;;;;9.83;7.10;;;18.40;53.80;;;;;;5106043;28;20415;-79
2021/07/21 05:31:22;;;;;;;8.63;7.07;;;18.10;55.20;;;;;;5102471;28;20485;-79
2021/07/21 05:33:49;;;;;;;10.20;7.10;;;17.90;56.60;;;;;;5098145;28;20575;-79
2021/07/21 05:36:16;;;;;;;7.63;6.50;;;17.90;55.70;;;;;;5097685;28;20431;-79
2021/07/21 05:38:44;;;;;;;7.70;6.03;;;18.00;54.70;;;;;;5097409;28;20864;-79
2021/07/21 05:41:11;;;;;;;9.97;6.53;;;17.90;55.70;;;;;;5096004;28;20501;-78
2021/07/21 05:43:38;;;;;;;11.03;7.10;;;18.40;53.40;;;;;;5096288;28;20523;-78
2021/07/21 05:46:05;;;;;;;7.43;6.67;;;18.40;53.00;;;;;;5095884;28;20511;-79
2021/07/21 05:48:32;;;;;;;10.00;7.37;;;18.30;53.00;;;;;;5095001;28;20437;-79
2021/07/21 05:50:59;;;;;;;8.93;6.43;;;18.10;54.20;;;;;;5096046;28;20980;-79
2021/07/21 05:53:26;;;;;;;8.47;6.60;;;18.80;52.40;;;;;;5095033;28;20491;-78
2021/07/21 05:55:55;;;;;;;7.77;5.80;;;18.30;53.10;;;;;;5095833;28;20513;-78
2021/07/21 05:58:21;;;;;;;10.50;6.33;;;18.40;53.90;;;;;;5095944;28;20424;-80
2021/07/21 06:00:48;;;;;;;9.90;6.90;;;18.40;52.80;;;;;;5104191;28;20451;-79
2021/07/21 06:03:18;;;;;;;10.13;5.77;;;19.00;51.40;;;;;;5103296;28;20467;-79
2021/07/21 06:05:45;;;;;;;8.27;6.73;;;18.90;52.80;;;;;;5104632;28;20428;-79
2021/07/21 06:08:12;;;;;;;9.07;6.07;;;18.90;51.40;;;;;;5101787;28;20460;-80
2021/07/21 06:10:40;;;;;;;9.47;6.27;;;19.00;50.20;;;;;;5101944;28;20463;-79
2021/07/21 06:13:11;;;;;;;11.67;5.90;;;19.30;48.20;;;;;;5103396;28;20997;-82
2021/07/21 06:15:38;;;;;;;11.70;6.27;;;18.90;50.40;;;;;;5099196;28;20491;-79
2021/07/21 06:18:05;;;;;;;8.80;6.20;;;18.50;51.40;;;;;;5102814;28;20440;-81
2021/07/21 06:20:32;;;;;;;9.23;6.03;;;18.70;51.00;;;;;;5100284;28;20488;-79
2021/07/21 06:22:59;;;;;;;7.33;5.80;;;18.80;50.50;;;;;;5101575;28;20585;-79
2021/07/21 06:25:26;;;;;;;9.13;5.63;;;19.30;48.20;;;;;;5102795;28;20503;-81
2021/07/21 06:27:53;;;;;;;13.90;6.53;;;19.20;48.70;;;;;;5099811;28;20493;-79
2021/07/21 06:30:21;;;;;;;8.60;6.20;;;19.50;48.40;;;;;;5104886;28;20472;-78
2021/07/21 06:32:48;;;;;;;10.73;6.90;;;19.40;48.30;;;;;;5107455;28;20420;-78
2021/07/21 06:35:15;;;;;;;11.67;5.83;;;19.60;47.70;;;;;;5096662;28;20462;-77
2021/07/21 06:37:42;;;;;;;7.37;6.23;;;19.30;48.20;;;;;;5100788;28;20537;-78
2021/07/21 06:40:10;;;;;;;9.17;5.87;;;19.60;48.50;;;;;;5099950;28;20509;-82
2021/07/21 06:42:37;;;;;;;8.43;5.80;;;19.70;48.60;;;;;;5104586;28;20485;-80
2021/07/21 06:45:06;;;;;;;6.87;5.60;;;19.80;47.70;;;;;;5096770;28;20508;-78
2021/07/21 06:47:35;;;;;;;6.80;5.50;;;20.00;46.80;;;;;;5097252;28;20498;-78
2021/07/21 06:50:02;;;;;;;7.40;6.23;;;20.20;46.80;;;;;;5095971;28;20473;-80
2021/07/21 06:52:29;;;;;;;7.40;5.77;;;19.90;47.50;;;;;;5096547;28;20494;-77
2021/07/21 06:54:57;;;;;;;7.50;5.83;;;20.10;46.70;;;;;;5099663;28;20523;-78
2021/07/21 06:57:24;;;;;;;7.10;6.13;;;20.30;45.90;;;;;;5100747;28;20459;-79
2021/07/21 06:59:51;;;;;;;11.83;6.53;;;19.70;47.20;;;;;;5103560;28;20493;-79
2021/07/21 07:02:18;;;;;;;7.57;5.73;;;19.40;48.30;;;;;;5103289;28;20537;-78
2021/07/21 07:04:46;;;;;;;8.30;5.93;;;19.20;48.40;;;;;;5104225;28;20466;-79
2021/07/21 07:07:13;;;;;;;10.50;7.13;;;19.00;49.20;;;;;;5112784;28;20424;-79
2021/07/21 07:09:40;;;;;;;7.67;5.73;;;18.90;49.80;;;;;;5119995;27;20460;-82
2021/07/21 07:12:07;;;;;;;8.07;6.83;;;18.90;49.80;;;;;;5120836;27;20487;-85
2021/07/21 07:14:34;;;;;;;8.40;7.17;;;18.90;49.90;;;;;;5120441;27;20435;-81
2021/07/21 07:17:02;;;;;;;12.40;7.27;;;18.80;50.50;;;;;;5120376;27;20428;-82
2021/07/21 07:19:28;;;;;;;9.90;6.70;;;18.90;50.50;;;;;;5120463;27;20419;-82
2021/07/21 07:21:59;;;;;;;6.20;5.60;;;18.90;50.90;;;;;;5121015;27;20469;-82
2021/07/21 07:24:26;;;;;;;7.37;6.43;;;19.20;50.20;;;;;;5120459;27;20510;-82
2021/07/21 07:26:53;;;;;;;9.33;6.50;;;19.30;49.20;;;;;;5120810;27;20429;-77
2021/07/21 07:29:20;;;;;;;13.07;6.97;;;19.20;49.90;;;;;;5118259;27;20527;-80
2021/07/21 07:31:47;;;;;;;10.40;6.47;;;19.00;50.40;;;;;;5113281;28;20437;-80
2021/07/21 07:34:13;;;;;;;7.47;5.97;;;19.30;49.30;;;;;;5115304;28;20419;-79
2021/07/21 07:36:41;;;;;;;9.97;6.73;;;19.50;48.40;;;;;;5113702;28;20979;-80
2021/07/21 07:39:09;;;;;;;10.23;7.20;;;19.40;49.40;;;;;;5113704;28;20464;-80
2021/07/21 07:41:37;;;;;;;7.63;6.43;;;19.40;49.20;;;;;;5118422;27;20438;-84
2021/07/21 07:44:05;;;;;;;8.77;6.30;;;19.40;49.20;;;;;;5119666;27;20499;-82
2021/07/21 07:46:33;;;;;;;7.00;6.30;;;19.60;49.40;;;;;;5118635;27;20487;-82
2021/07/21 07:49:01;;;;;;;13.07;7.00;;;19.60;49.20;;;;;;5117499;28;20445;-80
2021/07/21 07:51:29;;;;;;;8.70;6.13;;;19.80;48.70;;;;;;5112894;28;20807;-80
2021/07/21 07:53:57;;;;;;;10.80;6.80;;;19.90;48.80;;;;;;5098779;28;20449;-78
2021/07/21 07:56:26;;;;;;;11.20;8.00;;;19.90;48.80;;;;;;5099954;28;20541;-79
2021/07/21 07:58:53;;;;;;;9.87;6.80;;;19.90;48.80;;;;;;5101201;28;20953;-80
2021/07/21 08:01:20;;;;;;;7.57;6.63;;;20.00;48.90;;;;;;5105393;28;20836;-79
2021/07/21 08:03:47;;;;;;;10.70;6.90;;;20.20;48.60;;;;;;5103737;28;20495;-79
2021/07/21 08:06:14;;;;;;;8.00;7.13;;;20.30;49.10;;;;;;5105901;28;20436;-80
2021/07/21 08:08:41;;;;;;;8.47;6.03;;;20.20;49.00;;;;;;5110829;28;20445;-81
2021/07/21 08:11:12;;;;;;;10.70;6.03;;;20.50;49.30;;;;;;5115209;27;20486;-77
2021/07/21 08:13:41;;;;;;;10.73;7.23;;;20.60;47.50;;;;;;5118131;28;20458;-80
2021/07/21 08:16:08;;;;;;;7.93;7.13;;;20.30;48.50;;;;;;5117215;27;20446;-81
2021/07/21 08:18:35;;;;;;;9.20;6.97;;;20.40;49.30;;;;;;5118470;28;20518;-81
2021/07/21 08:21:03;;;;;;;8.87;7.37;;;20.70;47.80;;;;;;5118554;27;20478;-82
2021/07/21 08:23:30;;;;;;;9.37;6.93;;;20.80;47.00;;;;;;5113490;28;20514;-79
2021/07/21 08:25:56;;;;;;;9.50;7.60;;;20.80;47.10;;;;;;5105395;28;20845;-80
2021/07/21 08:28:23;;;;;;;10.70;7.30;;;21.00;47.10;;;;;;5108600;28;20418;-79
2021/07/21 08:30:52;;;;;;;8.23;6.87;;;21.20;46.60;;;;;;5110820;28;20586;-80
2021/07/21 08:33:19;;;;;;;11.43;6.80;;;21.20;45.70;;;;;;5113556;28;20447;-81
2021/07/21 08:35:47;;;;;;;7.43;6.17;;;21.40;46.10;;;;;;5114493;28;20434;-80
2021/07/21 08:38:14;;;;;;;8.73;6.00;;;21.60;45.00;;;;;;5115994;28;20433;-79
2021/07/21 08:40:42;;;;;;;9.70;6.80;;;21.70;45.50;;;;;;5116668;28;20455;-77
2021/07/21 08:43:10;;;;;;;10.43;6.60;;;21.50;45.20;;;;;;5113515;27;20560;-79
2021/07/21 08:45:38;;;;;;;8.90;6.80;;;21.60;45.40;;;;;;5115430;28;20406;-76
2021/07/21 08:48:06;;;;;;;10.17;6.90;;;21.90;44.70;;;;;;5118952;27;20414;-78
2021/07/21 08:50:33;;;;;;;8.40;7.50;;;21.90;44.20;;;;;;5115173;27;20438;-80
2021/07/21 08:53:02;;;;;;;8.87;6.67;;;22.00;42.60;;;;;;5102977;28;20477;-79
2021/07/21 08:55:30;;;;;;;8.33;7.37;;;22.30;43.10;;;;;;5102519;28;20433;-79
2021/07/21 08:57:57;;;;;;;8.90;7.43;;;21.90;43.60;;;;;;5111822;28;20481;-80
2021/07/21 09:00:24;;;;;;;9.53;7.80;;;21.90;43.90;;;;;;5107632;28;20425;-78
2021/07/21 09:02:52;;;;;;;9.23;7.23;;;21.90;43.10;;;;;;5097193;28;20461;-78
2021/07/21 09:05:21;;;;;;;7.83;7.03;;;21.70;43.00;;;;;;5103826;28;20499;-79
2021/07/21 09:07:48;;;;;;;7.50;6.60;;;21.90;43.50;;;;;;5112066;28;20475;-79
2021/07/21 09:10:17;;;;;;;10.07;7.57;;;22.20;42.40;;;;;;5107497;27;20430;-79
2021/07/21 09:12:46;;;;;;;8.07;6.83;;;22.10;42.30;;;;;;5099623;28;20446;-81
2021/07/21 09:15:16;;;;;;;8.90;7.00;;;22.10;41.90;;;;;;5100268;28;20458;-79
2021/07/21 09:18:00;;;;;;;12.13;8.40;;;22.20;41.80;;;;;;5104303;28;20538;-80
2021/07/21 09:20:29;;;;;;;8.50;7.37;;;22.50;41.90;;;;;;5106775;28;20486;-79
2021/07/21 09:22:57;;;;;;;10.10;6.60;;;22.60;41.30;;;;;;5104485;28;20518;-80
2021/07/21 09:25:25;;;;;;;10.00;7.17;;;22.60;41.20;;;;;;5102571;28;20490;-81
2021/07/21 09:27:54;;;;;;;10.27;7.27;;;22.60;40.90;;;;;;5106746;28;20464;-79
2021/07/21 09:30:23;;;;;;;7.30;6.60;;;22.50;41.10;;;;;;5101046;28;20537;-79
2021/07/21 09:32:58;;;;;;;7.77;6.97;;;22.50;41.10;;;;;;5105009;28;20451;-80
2021/07/21 09:35:29;;;;;;;8.13;6.83;;;22.80;40.10;;;;;;5107775;28;20441;-80
2021/07/21 09:37:59;;;;;;;11.80;6.30;;;22.90;39.40;;;;;;5108919;28;20456;-79
2021/07/21 09:40:27;;;;;;;7.60;6.53;;;23.00;38.90;;;;;;5102052;28;20455;-78
2021/07/21 09:42:54;;;;;;;8.40;6.93;;;23.10;37.30;;;;;;5101074;28;20483;-79
2021/07/21 09:45:21;;;;;;;12.20;7.50;;;23.20;36.50;;;;;;5101643;28;20448;-79
2021/07/21 09:47:53;;;;;;;7.83;6.50;;;23.20;37.20;;;;;;5097928;28;20494;-79
2021/07/21 09:50:24;;;;;;;9.33;7.63;;;23.30;37.30;;;;;;5098584;28;20456;-79
2021/07/21 09:52:55;;;;;;;9.47;6.50;;;23.30;36.30;;;;;;5098310;28;20433;-78
2021/07/21 09:55:23;;;;;;;10.33;6.60;;;23.20;36.00;;;;;;5096024;28;20453;-79
2021/07/21 09:58:03;;;;;;;8.20;6.30;;;23.30;35.30;;;;;;5095673;28;20858;-79
2021/07/21 10:00:31;;;;;;;9.30;6.93;;;23.60;34.60;;;;;;5096539;28;20469;-80
2021/07/21 10:03:23;;;;;;;8.13;6.07;;;23.60;33.00;;;;;;5106604;28;20434;-81
2021/07/21 10:06:01;;;;;;;10.60;6.40;;;23.30;35.00;;;;;;5095799;28;20466;-80
2021/07/21 10:08:33;;;;;;;7.83;6.30;;;23.40;35.50;;;;;;5106638;28;20494;-78
2021/07/21 10:11:18;;;;;;;7.73;6.10;;;23.60;34.90;;;;;;5100228;28;20504;-79
2021/07/21 10:13:45;;;;;;;7.83;7.10;;;23.50;35.40;;;;;;5098554;28;20428;-81
2021/07/21 10:16:12;;;;;;;10.60;7.10;;;23.80;34.30;;;;;;5098466;28;20986;-81
2021/07/21 10:18:39;;;;;;;7.80;6.73;;;24.20;34.00;;;;;;5102803;28;20507;-80
2021/07/21 10:21:09;;;;;;;10.43;6.60;;;23.90;35.00;;;;;;5109402;27;20473;-82
2021/07/21 10:23:37;;;;;;;8.40;7.60;;;24.10;34.40;;;;;;5109843;28;20461;-81
2021/07/21 10:26:04;;;;;;;10.80;6.80;;;24.10;33.90;;;;;;5106050;28;20935;-81
2021/07/21 10:28:31;;;;;;;8.50;6.97;;;24.40;32.60;;;;;;5103852;28;20466;-80
2021/07/21 10:30:59;;;;;;;9.13;6.70;;;24.10;32.30;;;;;;5102859;28;20449;-80
2021/07/21 10:33:26;;;;;;;8.10;6.00;;;23.80;32.00;;;;;;5104869;28;20954;-79
2021/07/21 10:35:54;;;;;;;8.00;6.00;;;24.00;32.70;;;;;;5103162;28;20433;-81
2021/07/21 10:38:21;;;;;;;7.37;6.57;;;24.20;31.90;;;;;;5100974;28;20418;-80
2021/07/21 10:40:51;;;;;;;7.27;6.57;;;24.10;32.30;;;;;;5103197;28;20853;-81
2021/07/21 10:43:18;;;;;;;12.30;6.47;;;23.90;33.40;;;;;;5100401;28;20480;-80
2021/07/21 10:45:45;;;;;;;11.53;7.00;;;24.10;32.30;;;;;;5101775;28;20799;-79
2021/07/21 10:48:20;;;;;;;9.57;7.40;;;24.20;32.40;;;;;;5104430;28;20447;-80
2021/07/21 10:50:59;;;;;;;7.53;6.60;;;24.40;32.60;;;;;;5102399;28;20460;-81
2021/07/21 10:53:34;;;;;;;9.43;6.60;;;24.50;32.70;;;;;;5103160;28;20816;-80
2021/07/21 10:59:16;;;;;;;12.20;7.50;;;24.50;31.80;;;;;;5058281;28;20419;-81
2021/07/21 11:01:45;;;;;;;7.57;6.53;;;24.20;32.40;;;;;;5095659;28;20535;-79
2021/07/21 11:04:12;;;;;;;9.73;6.70;;;24.40;32.10;;;;;;5093525;28;20854;-79
2021/07/21 11:06:40;;;;;;;7.93;7.10;;;24.40;31.50;;;;;;5095120;28;20458;-79
2021/07/21 11:09:22;;;;;;;6.37;5.77;;;24.50;31.60;;;;;;5096541;28;20839;-79
2021/07/21 11:11:56;;;;;;;10.30;7.63;;;24.60;32.10;;;;;;5098433;28;20457;-80
2021/07/21 11:14:24;;;;;;;9.73;7.40;;;24.60;32.00;;;;;;5099453;28;20465;-80
2021/07/21 11:16:52;;;;;;;8.63;6.60;;;24.60;32.20;;;;;;5100409;28;20967;-79
2021/07/21 11:19:35;;;;;;;7.43;6.53;;;24.90;30.80;;;;;;5100833;28;20456;-79
2021/07/21 11:22:05;;;;;;;7.00;6.30;;;25.20;30.30;;;;;;5100434;28;20500;-80
2021/07/21 11:25:05;;;;;;;7.67;6.87;;;25.30;30.20;;;;;;5103246;28;20472;-80
2021/07/21 11:27:43;;;;;;;7.30;6.60;;;25.40;29.90;;;;;;5100253;28;20973;-80
2021/07/21 11:30:35;;;;;;;7.70;6.90;;;25.10;30.70;;;;;;5099155;28;20486;-80
2021/07/21 11:33:40;;;;;;;12.83;6.77;;;25.30;30.70;;;;;;5101282;28;20425;-81
2021/07/21 11:36:07;;;;;;;10.10;6.90;;;25.40;30.00;;;;;;5102651;28;20520;-81
2021/07/21 11:38:49;;;;;;;7.93;7.00;;;25.40;30.20;;;;;;5102336;28;20473;-81
2021/07/21 11:41:51;;;;;;;12.10;6.87;;;25.50;31.30;;;;;;5104108;28;20506;-81
2021/07/21 11:44:24;;;;;;;8.77;6.57;;;25.10;31.30;;;;;;5104859;28;20461;-79
2021/07/21 11:46:52;;;;;;;6.80;6.03;;;25.10;31.90;;;;;;5105655;28;20441;-81
2021/07/21 11:49:21;;;;;;;8.23;7.43;;;25.50;30.40;;;;;;5106173;28;20437;-79
2021/07/21 11:51:52;;;;;;;7.40;6.67;;;25.60;30.70;;;;;;5104857;28;20483;-80
2021/07/21 11:54:24;;;;;;;10.50;7.90;;;25.70;29.40;;;;;;5115878;27;20440;-78
2021/07/21 11:56:52;;;;;;;7.23;6.53;;;25.70;30.00;;;;;;5118852;28;20443;-81
2021/07/21 11:59:30;;;;;;;8.33;6.80;;;25.60;30.50;;;;;;5111439;28;20443;-79
2021/07/21 12:02:05;;;;;;;7.90;7.10;;;25.70;30.50;;;;;;5115207;28;20471;-79
2021/07/21 12:04:32;;;;;;;8.60;6.70;;;25.90;29.60;;;;;;5108288;28;20453;-79
2021/07/21 12:07:00;;;;;;;9.60;7.17;;;25.70;30.20;;;;;;5109522;28;20426;-80
2021/07/21 12:09:28;;;;;;;7.60;6.57;;;25.70;30.40;;;;;;5108914;28;20434;-80
2021/07/21 12:11:57;;;;;;;9.70;6.80;;;26.00;29.60;;;;;;5110312;28;20489;-82
2021/07/21 12:14:26;;;;;;;8.70;7.90;;;26.20;29.70;;;;;;5105896;28;20451;-81
2021/07/21 12:16:54;;;;;;;9.43;6.97;;;26.00;30.20;;;;;;5103487;28;20456;-80
2021/07/21 12:19:25;;;;;;;20.60;7.77;;;26.10;29.10;;;;;;5103976;28;20460;-79
2021/07/21 12:22:08;;;;;;;9.63;7.13;;;25.90;30.50;;;;;;5104144;28;20450;-79
2021/07/21 12:24:37;;;;;;;8.27;7.47;;;26.00;29.30;;;;;;5103549;28;20470;-78
2021/07/21 12:27:06;;;;;;;8.37;7.43;;;26.10;29.10;;;;;;5106082;28;20517;-80
2021/07/21 12:29:34;;;;;;;7.30;6.57;;;25.80;29.70;;;;;;5111908;28;20445;-80
2021/07/21 12:32:06;;;;;;;12.40;7.73;;;26.10;29.00;;;;;;5103615;28;20468;-79
2021/07/21 12:34:34;;;;;;;7.20;6.50;;;25.70;29.90;;;;;;5103856;28;20422;-79
2021/07/21 12:37:01;;;;;;;9.07;7.53;;;25.90;29.50;;;;;;5102976;28;20649;-80
2021/07/21 12:39:30;;;;;;;9.27;7.20;;;25.90;29.50;;;;;;5103795;28;20423;-80
2021/07/21 12:42:07;;;;;;;9.83;7.40;;;26.10;29.70;;;;;;5107362;28;20508;-79
2021/07/21 12:44:39;;;;;;;10.53;8.10;;;26.10;29.00;;;;;;5111056;28;20476;-79
2021/07/21 12:47:13;;;;;;;8.47;7.40;;;26.40;28.00;;;;;;5115080;28;20507;-79
2021/07/21 12:49:42;;;;;;;11.33;7.93;;;26.40;28.10;;;;;;5109794;28;20782;-81
2021/07/21 12:52:12;;;;;;;10.67;7.77;;;26.60;28.20;;;;;;5113329;28;20515;-81
2021/07/21 12:54:39;;;;;;;9.20;7.40;;;26.40;28.30;;;;;;5115737;28;20446;-80
2021/07/21 12:57:12;;;;;;;7.97;7.17;;;26.40;28.70;;;;;;5113173;28;20448;-80